Time;durP1;ratioP1;P1;durP2;ratioP2;P2;SDS_P1;SDS_P2;PMS_P1;PMS_P2;Temp;Humidity;BMP_temperature;BMP_pressure;BME280_temperature;BME280_humidity;BME280_pressure;Samples;Min_cycle;Max_cycle;Signal;HPM_P1;HPM_P2
2021/01/04 00:02:17;;;;;;;34.87;16.20;;;;;;;2.72;100.00;97627.50;5099082;28;20658;-74
2021/01/04 00:05:20;;;;;;;32.07;15.53;;;;;;;2.86;100.00;97637.44;5093818;28;20204;-74
2021/01/04 00:08:19;;;;;;;41.30;16.93;;;;;;;2.86;100.00;97630.34;5090022;28;20215;-73
2021/01/04 00:11:07;;;;;;;36.03;16.20;;;;;;;2.93;100.00;97627.88;5103386;28;20231;-74
2021/01/04 00:13:41;;;;;;;39.47;16.33;;;;;;;3.00;100.00;97629.69;5096037;28;20287;-74
2021/01/04 00:16:13;;;;;;;34.43;16.10;;;;;;;2.95;100.00;97626.72;5090741;28;20193;-73
2021/01/04 00:18:46;;;;;;;36.43;16.30;;;;;;;2.93;100.00;97625.25;5093811;28;20202;-75
2021/01/04 00:21:19;;;;;;;33.33;16.03;;;;;;;2.88;100.00;97622.28;5112982;28;20217;-73
2021/01/04 00:23:55;;;;;;;35.10;16.10;;;;;;;2.78;100.00;97622.44;5098129;28;20197;-73
2021/01/04 00:26:26;;;;;;;31.80;14.93;;;;;;;2.91;100.00;97625.44;5098113;28;20244;-74
2021/01/04 00:28:53;;;;;;;34.37;16.43;;;;;;;2.86;100.00;97619.81;5091476;28;20205;-73
2021/01/04 00:31:24;;;;;;;36.63;17.10;;;;;;;2.78;100.00;97619.78;5100468;28;20688;-73
2021/01/04 00:33:55;;;;;;;34.77;16.00;;;;;;;2.97;100.00;97621.28;5105474;28;20199;-73
2021/01/04 00:36:24;;;;;;;34.47;15.13;;;;;;;3.27;100.00;97621.50;5093854;28;20198;-73
2021/01/04 00:39:35;;;;;;;32.73;15.80;;;;;;;2.83;100.00;97619.28;5089934;28;20235;-74
2021/01/04 00:42:08;;;;;;;33.40;16.77;;;;;;;2.96;100.00;97622.28;5100058;28;20224;-73
2021/01/04 00:44:43;;;;;;;34.13;15.47;;;;;;;3.11;100.00;97626.75;5101001;28;20196;-78
2021/01/04 00:47:14;;;;;;;34.60;15.90;;;;;;;3.12;100.00;97623.13;5109068;28;20205;-73
2021/01/04 00:49:43;;;;;;;30.33;14.10;;;;;;;3.16;100.00;97623.63;5111560;28;20192;-73
2021/01/04 00:52:21;;;;;;;34.47;14.47;;;;;;;2.93;100.00;97628.72;5097716;28;20220;-73
2021/01/04 00:54:58;;;;;;;33.87;15.77;;;;;;;2.94;100.00;97626.88;5092622;28;20669;-74
2021/01/04 00:57:48;;;;;;;38.13;17.00;;;;;;;3.03;100.00;97634.66;5101602;28;20185;-73
2021/01/04 01:00:20;;;;;;;36.50;17.10;;;;;;;3.02;100.00;97626.91;5093596;28;20196;-73
2021/01/04 01:03:16;;;;;;;38.60;16.67;;;;;;;3.04;100.00;97630.19;5106342;27;20287;-75
2021/01/04 01:05:50;;;;;;;40.63;17.20;;;;;;;3.12;100.00;97636.31;5101037;28;20213;-72
2021/01/04 01:08:23;;;;;;;35.20;15.90;;;;;;;3.06;100.00;97639.59;5092928;28;20197;-73
2021/01/04 01:10:54;;;;;;;38.00;15.50;;;;;;;2.99;100.00;97641.22;5106031;28;20267;-74
2021/01/04 01:13:43;;;;;;;36.20;16.07;;;;;;;2.70;100.00;97638.22;5105676;28;20196;-73
2021/01/04 01:16:22;;;;;;;38.90;15.63;;;;;;;3.02;100.00;97643.56;5095088;28;20206;-73
2021/01/04 01:18:58;;;;;;;34.57;15.93;;;;;;;2.93;100.00;97641.88;5106263;28;20253;-73
2021/01/04 01:21:26;;;;;;;34.87;15.20;;;;;;;2.66;100.00;97638.69;5092794;28;20217;-75
2021/01/04 01:23:53;;;;;;;37.37;16.07;;;;;;;2.84;100.00;97632.31;5092010;28;20203;-73
2021/01/04 01:26:57;;;;;;;39.87;16.13;;;;;;;2.95;100.00;97636.47;5104952;28;20192;-75
2021/01/04 01:30:00;;;;;;;37.33;15.30;;;;;;;3.02;100.00;97635.66;5103013;28;20578;-75
2021/01/04 01:32:42;;;;;;;37.23;15.60;;;;;;;3.16;100.00;97636.81;5108248;27;20196;-73
2021/01/04 01:35:14;;;;;;;35.90;17.20;;;;;;;2.90;100.00;97639.56;5104723;28;20208;-73
2021/01/04 01:38:15;;;;;;;37.30;16.23;;;;;;;3.01;100.00;97641.88;5092015;28;20313;-73
2021/01/04 01:41:13;;;;;;;38.27;15.50;;;;;;;3.16;100.00;97637.63;5045632;28;20306;-73
2021/01/04 01:43:52;;;;;;;37.40;15.90;;;;;;;2.72;100.00;97638.88;5104272;28;20203;-73
2021/01/04 01:46:22;;;;;;;36.67;16.87;;;;;;;2.80;100.00;97646.78;5096903;28;20196;-73
2021/01/04 01:49:03;;;;;;;36.23;15.87;;;;;;;2.95;100.00;97645.16;5108780;28;20233;-73
2021/01/04 01:51:41;;;;;;;37.20;16.43;;;;;;;3.00;100.00;97649.97;5088860;28;20239;-73
2021/01/04 01:54:29;;;;;;;37.97;16.83;;;;;;;3.06;100.00;97650.13;5098507;28;20196;-73
2021/01/04 01:57:14;;;;;;;41.37;16.80;;;;;;;3.02;100.00;97643.56;5100893;28;21942;-73
2021/01/04 01:59:56;;;;;;;40.27;17.10;;;;;;;3.26;100.00;97642.75;5101158;28;20189;-76
2021/01/04 02:02:28;;;;;;;36.77;16.60;;;;;;;3.32;100.00;97647.34;5109956;28;20237;-77
2021/01/04 02:05:01;;;;;;;40.70;16.83;;;;;;;3.10;100.00;97646.19;5099605;28;20201;-76
2021/01/04 02:07:33;;;;;;;39.87;17.93;;;;;;;3.02;100.00;97648.00;5096406;28;20200;-72
2021/01/04 02:10:08;;;;;;;41.33;17.57;;;;;;;3.00;100.00;97649.97;5105094;28;20216;-73
2021/01/04 02:12:41;;;;;;;39.43;15.90;;;;;;;3.27;100.00;97645.22;5103635;28;20240;-73
2021/01/04 02:15:12;;;;;;;39.13;17.93;;;;;;;3.00;100.00;97639.44;5092846;28;20211;-73
2021/01/04 02:18:07;;;;;;;39.33;17.00;;;;;;;3.17;100.00;97647.19;5111262;28;20201;-73
2021/01/04 02:20:59;;;;;;;37.13;17.30;;;;;;;2.95;100.00;97639.91;5097311;28;20695;-73
2021/01/04 02:23:37;;;;;;;34.20;15.53;;;;;;;3.42;100.00;97642.75;5090594;28;20200;-72
2021/01/04 02:26:11;;;;;;;35.70;16.57;;;;;;;3.44;100.00;97638.13;5093631;28;20195;-73
2021/01/04 02:28:55;;;;;;;38.20;17.23;;;;;;;3.41;100.00;97641.09;5110852;28;20200;-74
2021/01/04 02:31:22;;;;;;;36.33;17.53;;;;;;;3.25;100.00;97638.47;5114597;28;20704;-74
2021/01/04 02:33:49;;;;;;;40.30;17.67;;;;;;;3.56;100.00;97634.16;5107250;28;20208;-73
2021/01/04 02:36:16;;;;;;;39.43;17.33;;;;;;;3.51;100.00;97634.66;5097000;28;20193;-73
2021/01/04 02:38:50;;;;;;;38.60;16.47;;;;;;;3.57;100.00;97634.00;5100862;28;20213;-73
2021/01/04 02:41:18;;;;;;;33.33;16.03;;;;;;;3.56;100.00;97632.34;5089904;28;20278;-73
2021/01/04 02:43:45;;;;;;;42.13;17.90;;;;;;;3.45;100.00;97629.25;5106640;28;20198;-72
2021/01/04 02:46:15;;;;;;;34.43;16.43;;;;;;;3.26;100.00;97632.19;5099600;28;20200;-73
2021/01/04 02:48:55;;;;;;;37.07;16.87;;;;;;;3.18;100.00;97635.66;5096797;28;20274;-74
2021/01/04 02:51:26;;;;;;;39.73;16.57;;;;;;;3.24;100.00;97637.63;5100521;28;20223;-73
2021/01/04 02:54:04;;;;;;;37.60;17.20;;;;;;;3.09;100.00;97641.06;5102272;28;20196;-72
2021/01/04 02:56:44;;;;;;;38.20;17.00;;;;;;;2.94;100.00;97645.31;5095312;28;20205;-73
2021/01/04 02:59:18;;;;;;;35.83;16.30;;;;;;;2.89;100.00;97645.03;5094913;28;20196;-73
2021/01/04 03:01:51;;;;;;;38.73;17.17;;;;;;;2.99;100.00;97640.41;5099679;28;20220;-73
2021/01/04 03:04:21;;;;;;;36.90;17.63;;;;;;;3.30;100.00;97642.25;5105210;28;20644;-72
2021/01/04 03:06:57;;;;;;;34.13;15.60;;;;;;;3.24;100.00;97645.53;5110995;28;20200;-72
2021/01/04 03:09:26;;;;;;;41.73;19.03;;;;;;;3.34;100.00;97643.56;5102160;28;20637;-74
2021/01/04 03:11:56;;;;;;;43.27;16.67;;;;;;;3.38;100.00;97647.53;5104625;28;21657;-73
2021/01/04 03:14:32;;;;;;;38.77;16.20;;;;;;;3.47;100.00;97643.06;5094932;28;20542;-76
2021/01/04 03:17:07;;;;;;;40.27;17.33;;;;;;;3.56;100.00;97647.34;5099401;28;20246;-73
2021/01/04 03:19:38;;;;;;;38.33;16.13;;;;;;;3.48;100.00;97649.97;5105546;28;20199;-72
2021/01/04 03:22:11;;;;;;;48.20;17.10;;;;;;;3.50;100.00;97646.19;5095173;28;20224;-75
2021/01/04 03:24:38;;;;;;;34.40;16.30;;;;;;;3.45;100.00;97645.06;5108044;28;20211;-72
2021/01/04 03:27:09;;;;;;;40.13;16.87;;;;;;;3.46;100.00;97644.88;5108105;28;20206;-72
2021/01/04 03:29:36;;;;;;;34.63;16.63;;;;;;;3.40;100.00;97642.91;5094677;28;20217;-73
2021/01/04 03:32:04;;;;;;;35.40;16.50;;;;;;;3.59;100.00;97639.94;5089051;28;20227;-72
2021/01/04 03:34:31;;;;;;;37.23;17.47;;;;;;;3.10;100.00;97645.38;5107465;28;20208;-72
2021/01/04 03:36:58;;;;;;;36.57;16.90;;;;;;;3.09;100.00;97639.28;5110807;28;20451;-72
2021/01/04 03:39:28;;;;;;;36.33;16.63;;;;;;;3.23;100.00;97638.63;5109994;28;20205;-72
2021/01/04 03:41:56;;;;;;;36.70;16.57;;;;;;;3.19;100.00;97637.31;5100569;28;20225;-73
2021/01/04 03:44:23;;;;;;;34.97;16.60;;;;;;;3.32;100.00;97642.91;5093567;28;20201;-73
2021/01/04 03:46:50;;;;;;;34.97;16.07;;;;;;;3.02;100.00;97645.34;5106001;28;20287;-72
2021/01/04 03:49:17;;;;;;;40.00;17.47;;;;;;;3.23;100.00;97640.44;5113198;28;20198;-73
2021/01/04 03:51:49;;;;;;;37.30;16.27;;;;;;;3.24;100.00;97642.06;5109852;28;20684;-73
2021/01/04 03:54:16;;;;;;;35.37;16.27;;;;;;;2.99;100.00;97643.88;5107908;27;20188;-73
2021/01/04 03:56:43;;;;;;;34.20;16.43;;;;;;;2.98;100.00;97650.13;5093616;28;20197;-73
2021/01/04 03:59:11;;;;;;;37.43;15.93;;;;;;;3.12;100.00;97646.03;5098613;28;20213;-73
2021/01/04 04:01:39;;;;;;;37.50;17.03;;;;;;;3.05;100.00;97639.78;5104138;28;20225;-73
2021/01/04 04:04:05;;;;;;;37.80;16.50;;;;;;;3.08;100.00;97656.06;5102018;28;20204;-73
2021/01/04 04:06:32;;;;;;;37.97;17.77;;;;;;;3.03;100.00;97653.09;5099818;28;20232;-75
2021/01/04 04:08:59;;;;;;;37.13;17.23;;;;;;;2.87;100.00;97650.44;5106940;28;20204;-73
2021/01/04 04:11:26;;;;;;;37.90;16.67;;;;;;;3.05;100.00;97648.47;5095875;28;20229;-73
2021/01/04 04:13:52;;;;;;;34.80;16.73;;;;;;;3.22;100.00;97655.44;5094201;28;20581;-74
2021/01/04 04:16:19;;;;;;;32.47;16.43;;;;;;;3.05;100.00;97650.31;5111451;28;20226;-73
2021/01/04 04:18:47;;;;;;;33.60;16.33;;;;;;;2.93;100.00;97649.78;5107610;28;20258;-73
2021/01/04 04:21:14;;;;;;;38.43;17.10;;;;;;;2.89;100.00;97647.66;5110007;28;20554;-73
2021/01/04 04:23:41;;;;;;;36.93;17.70;;;;;;;2.76;100.00;97650.75;5110159;27;20203;-73
2021/01/04 04:26:15;;;;;;;37.40;18.20;;;;;;;2.72;100.00;97653.84;5107114;28;20237;-73
2021/01/04 04:28:41;;;;;;;37.27;17.43;;;;;;;2.88;100.00;97656.53;5093050;28;20220;-73
2021/01/04 04:31:08;;;;;;;36.40;15.97;;;;;;;2.97;100.00;97652.94;5100515;28;20561;-73
2021/01/04 04:33:35;;;;;;;41.33;18.17;;;;;;;2.83;100.00;97648.28;5093311;28;20192;-74
2021/01/04 04:36:04;;;;;;;36.87;16.73;;;;;;;2.87;100.00;97644.34;5104243;28;20199;-73
2021/01/04 04:38:30;;;;;;;35.80;17.63;;;;;;;3.15;100.00;97649.16;5112174;28;20651;-73
2021/01/04 04:40:57;;;;;;;34.97;16.13;;;;;;;3.08;100.00;97656.06;5101318;28;20593;-74
2021/01/04 04:43:29;;;;;;;38.30;16.47;;;;;;;2.99;100.00;97651.78;5108789;28;20196;-75
2021/01/04 04:45:56;;;;;;;36.73;17.17;;;;;;;3.01;100.00;97649.78;5099734;28;20200;-73
2021/01/04 04:48:48;;;;;;;34.50;17.03;;;;;;;2.99;100.00;97653.56;5093325;28;20603;-76
2021/01/04 04:51:37;;;;;;;36.40;16.20;;;;;;;2.94;100.00;97655.88;5095261;28;20223;-74
2021/01/04 04:54:20;;;;;;;34.87;17.53;;;;;;;2.87;100.00;97658.34;5097405;28;20192;-76
2021/01/04 04:57:21;;;;;;;40.03;16.80;;;;;;;2.76;100.00;97657.81;5109737;28;20196;-73
2021/01/04 04:59:57;;;;;;;40.57;18.37;;;;;;;2.87;100.00;97663.63;5068086;28;20629;-73
2021/01/04 05:02:30;;;;;;;36.37;14.70;;;;;;;3.05;100.00;97666.94;5092414;28;20216;-74
2021/01/04 05:05:08;;;;;;;37.93;17.23;;;;;;;3.12;100.00;97665.31;5105406;28;20199;-72
2021/01/04 05:07:46;;;;;;;39.37;17.70;;;;;;;3.09;100.00;97663.00;5104140;28;20200;-73
2021/01/04 05:10:16;;;;;;;36.03;16.37;;;;;;;3.09;100.00;97662.16;5094156;28;20202;-72
2021/01/04 05:12:48;;;;;;;34.73;16.10;;;;;;;2.86;100.00;97661.97;5108504;28;20198;-72
2021/01/04 05:15:28;;;;;;;35.50;17.43;;;;;;;2.83;100.00;97659.66;5097458;28;20197;-72
2021/01/04 05:18:32;;;;;;;34.00;15.83;;;;;;;2.96;100.00;97670.53;5095425;28;20249;-74
2021/01/04 05:21:41;;;;;;;32.70;16.37;;;;;;;2.81;100.00;97664.28;5110824;28;20275;-72
2021/01/04 05:24:33;;;;;;;36.50;17.03;;;;;;;2.85;100.00;97665.56;5091709;28;20199;-73
2021/01/04 05:27:20;;;;;;;37.50;16.60;;;;;;;2.87;100.00;97660.16;5107814;28;20292;-73
2021/01/04 05:30:08;;;;;;;39.53;16.93;;;;;;;2.65;100.00;97664.19;5091623;28;20205;-75
2021/01/04 05:32:55;;;;;;;36.27;16.23;;;;;;;2.75;100.00;97662.25;5092375;28;20200;-72
2021/01/04 05:35:22;;;;;;;38.73;16.53;;;;;;;2.75;100.00;97666.72;5099406;28;20546;-72
2021/01/04 05:37:58;;;;;;;37.53;17.47;;;;;;;2.71;100.00;97660.97;5100794;28;20417;-74
2021/01/04 05:40:50;;;;;;;35.10;17.77;;;;;;;2.75;100.00;97669.34;5102669;28;20230;-76
2021/01/04 05:43:27;;;;;;;34.47;16.33;;;;;;;2.85;100.00;97662.94;5105944;28;20199;-74
2021/01/04 05:45:58;;;;;;;41.13;16.67;;;;;;;2.81;100.00;97664.28;5084336;28;20571;-72
2021/01/04 05:48:43;;;;;;;35.53;16.93;;;;;;;3.01;100.00;97662.16;5103725;28;20187;-75
2021/01/04 05:51:15;;;;;;;38.30;15.87;;;;;;;2.80;100.00;97661.78;5096454;28;20269;-72
2021/01/04 05:53:44;;;;;;;37.80;17.67;;;;;;;2.95;100.00;97665.44;5099183;28;20204;-72
2021/01/04 05:56:18;;;;;;;31.87;15.23;;;;;;;3.03;100.00;97671.56;5091420;28;20713;-75
2021/01/04 05:58:45;;;;;;;36.47;18.30;;;;;;;2.76;100.00;97669.19;5102959;28;20253;-72
2021/01/04 06:01:15;;;;;;;37.60;17.07;;;;;;;3.08;100.00;97665.78;5092663;28;20280;-73
2021/01/04 06:03:41;;;;;;;37.53;16.67;;;;;;;2.92;100.00;97669.22;5091581;28;20199;-73
2021/01/04 06:06:13;;;;;;;36.20;15.90;;;;;;;2.88;100.00;97657.34;5100612;28;20199;-74
2021/01/04 06:08:40;;;;;;;35.50;16.07;;;;;;;3.07;100.00;97659.72;5099705;28;20202;-74
2021/01/04 06:11:08;;;;;;;36.97;16.53;;;;;;;2.61;100.00;97662.06;5104388;28;20310;-75
2021/01/04 06:13:42;;;;;;;37.20;16.73;;;;;;;2.80;100.00;97667.06;5091904;28;20200;-74
2021/01/04 06:16:10;;;;;;;31.63;15.07;;;;;;;2.85;100.00;97660.31;5090580;28;20200;-73
2021/01/04 06:18:43;;;;;;;38.83;17.23;;;;;;;2.76;100.00;97665.72;5099543;28;20203;-74
2021/01/04 06:21:25;;;;;;;41.97;17.33;;;;;;;2.97;100.00;97658.19;5101896;28;20226;-74
2021/01/04 06:23:53;;;;;;;42.30;17.73;;;;;;;2.78;100.00;97659.31;5094468;28;20209;-74
2021/01/04 06:26:22;;;;;;;38.73;17.27;;;;;;;2.98;100.00;97659.84;5094832;28;20256;-73
2021/01/04 06:28:54;;;;;;;34.10;16.13;;;;;;;3.03;100.00;97668.91;5089181;28;20684;-74
2021/01/04 06:31:38;;;;;;;37.77;16.57;;;;;;;3.01;100.00;97667.44;5082626;28;20227;-74
2021/01/04 06:34:17;;;;;;;33.30;16.70;;;;;;;2.91;100.00;97674.66;5089988;28;20258;-74
2021/01/04 06:36:47;;;;;;;36.20;16.27;;;;;;;3.09;100.00;97673.53;5095813;28;20254;-73
2021/01/04 06:39:19;;;;;;;34.83;15.97;;;;;;;2.92;100.00;97676.31;5099017;28;20214;-73
2021/01/04 06:41:45;;;;;;;37.97;17.57;;;;;;;2.78;100.00;97671.66;5098327;28;20250;-73
2021/01/04 06:44:20;;;;;;;39.10;17.47;;;;;;;2.74;100.00;97671.16;5101457;28;20218;-74
2021/01/04 06:47:06;;;;;;;41.43;16.70;;;;;;;2.79;100.00;97660.16;5089810;28;20207;-74
2021/01/04 06:49:37;;;;;;;42.77;17.63;;;;;;;3.10;100.00;97667.28;5102250;28;20200;-73
2021/01/04 06:52:42;;;;;;;37.13;17.00;;;;;;;2.85;100.00;97670.03;5099085;28;20234;-73
2021/01/04 06:55:32;;;;;;;36.77;17.07;;;;;;;2.86;100.00;97675.16;5094311;28;20230;-73
2021/01/04 06:58:14;;;;;;;37.83;17.70;;;;;;;2.72;100.00;97670.50;5106225;28;20203;-73
2021/01/04 07:00:58;;;;;;;35.03;16.40;;;;;;;2.83;100.00;97670.19;5085456;28;20236;-74
2021/01/04 07:03:47;;;;;;;43.97;17.40;;;;;;;2.76;100.00;97669.19;5097656;28;20208;-73
2021/01/04 07:06:48;;;;;;;43.37;18.73;;;;;;;2.91;100.00;97662.31;5099779;28;20199;-74
2021/01/04 07:09:44;;;;;;;36.93;16.50;;;;;;;2.98;100.00;97667.75;5092224;28;20210;-74
2021/01/04 07:12:15;;;;;;;33.47;15.93;;;;;;;3.13;100.00;97669.59;5091489;28;20238;-74
2021/01/04 07:15:05;;;;;;;35.00;15.93;;;;;;;2.83;100.00;97679.91;5096323;28;20205;-74
2021/01/04 07:18:11;;;;;;;35.47;16.27;;;;;;;2.88;100.00;97675.81;5100968;28;20204;-74
2021/01/04 07:20:59;;;;;;;36.13;15.57;;;;;;;3.05;100.00;97677.47;5098691;28;20693;-75
2021/01/04 07:23:49;;;;;;;32.97;16.00;;;;;;;3.16;100.00;97679.78;5088068;28;20685;-73
2021/01/04 07:26:24;;;;;;;35.93;15.73;;;;;;;3.20;100.00;97681.13;5092228;28;20195;-74
2021/01/04 07:29:15;;;;;;;39.53;16.30;;;;;;;3.20;100.00;97680.31;5098529;28;20208;-73
2021/01/04 07:31:45;;;;;;;39.40;17.27;;;;;;;2.90;100.00;97679.09;5076300;28;20693;-75
2021/01/04 07:34:19;;;;;;;36.20;16.67;;;;;;;2.95;100.00;97681.25;5093659;28;20261;-73
2021/01/04 07:36:50;;;;;;;39.03;17.60;;;;;;;2.84;100.00;97679.75;5101642;28;20688;-73
2021/01/04 07:39:34;;;;;;;37.53;16.33;;;;;;;3.03;100.00;97683.91;5099857;28;20208;-75
2021/01/04 07:42:21;;;;;;;38.33;17.63;;;;;;;2.83;100.00;97680.72;5103866;28;20224;-73
2021/01/04 07:45:12;;;;;;;36.97;18.00;;;;;;;2.72;100.00;97688.09;5093085;28;20249;-74
2021/01/04 07:48:04;;;;;;;40.00;16.77;;;;;;;2.76;100.00;97689.44;5095371;28;20731;-73
2021/01/04 07:51:04;;;;;;;39.30;17.20;;;;;;;2.83;100.00;97691.28;5098245;28;20232;-72
2021/01/04 07:54:08;;;;;;;35.83;15.40;;;;;;;3.06;100.00;97692.28;5083322;28;20200;-72
2021/01/04 07:57:04;;;;;;;38.57;16.90;;;;;;;2.61;100.00;97688.41;5101991;28;20583;-73
2021/01/04 08:00:07;;;;;;;36.47;15.07;;;;;;;3.10;100.00;97684.91;5091256;28;20200;-73
2021/01/04 08:03:12;;;;;;;39.20;16.37;;;;;;;3.11;100.00;97695.28;5065544;28;20200;-73
2021/01/04 08:05:55;;;;;;;36.13;16.07;;;;;;;3.22;100.00;97689.72;5077435;28;20257;-74
2021/01/04 08:08:47;;;;;;;34.77;15.53;;;;;;;3.20;100.00;97696.13;5096129;28;20205;-82
2021/01/04 08:11:38;;;;;;;31.90;15.77;;;;;;;2.86;100.00;97690.97;5103549;28;20627;-73
2021/01/04 08:14:41;;;;;;;36.40;16.53;;;;;;;3.12;100.00;97698.75;5056029;28;20207;-79
2021/01/04 08:17:15;;;;;;;34.03;15.60;;;;;;;3.08;100.00;97695.63;5087219;28;20593;-74
2021/01/04 08:19:44;;;;;;;37.20;15.97;;;;;;;2.84;100.00;97692.13;5096992;28;20211;-76
2021/01/04 08:22:21;;;;;;;33.37;16.77;;;;;;;2.86;100.00;97698.88;5096244;28;20211;-74
2021/01/04 08:24:49;;;;;;;34.73;16.13;;;;;;;2.84;100.00;97700.03;5106372;28;20606;-74
2021/01/04 08:27:22;;;;;;;36.83;16.60;;;;;;;2.82;100.00;97697.53;5095226;28;20565;-73
2021/01/04 08:29:57;;;;;;;32.53;14.87;;;;;;;2.95;100.00;97697.88;5093082;28;20661;-74
2021/01/04 08:32:32;;;;;;;34.13;16.17;;;;;;;2.87;100.00;97697.03;5095762;28;20612;-73
2021/01/04 08:35:09;;;;;;;31.40;14.00;;;;;;;2.86;100.00;97695.41;5105558;28;20208;-77
2021/01/04 08:37:38;;;;;;;31.93;14.70;;;;;;;3.10;100.00;97703.38;5099266;28;20188;-75
2021/01/04 08:40:23;;;;;;;32.97;15.20;;;;;;;2.81;100.00;97698.53;5100333;28;20196;-74
2021/01/04 08:43:02;;;;;;;34.37;15.43;;;;;;;3.00;100.00;97700.06;5110197;28;20226;-77
2021/01/04 08:45:33;;;;;;;34.43;14.87;;;;;;;2.86;100.00;97704.13;5103851;28;20197;-72
2021/01/04 08:48:11;;;;;;;35.00;15.03;;;;;;;2.98;100.00;97704.63;5101372;28;20204;-75
2021/01/04 08:50:39;;;;;;;34.90;16.13;;;;;;;2.93;100.00;97710.41;5097317;28;20219;-73
2021/01/04 08:53:15;;;;;;;33.43;14.67;;;;;;;3.07;100.00;97712.44;5093096;28;20673;-72
2021/01/04 08:55:43;;;;;;;37.07;14.43;;;;;;;3.34;100.00;97706.84;5092281;28;20287;-79
2021/01/04 08:58:28;;;;;;;31.77;15.17;;;;;;;2.88;100.00;97715.34;5101013;28;20549;-72
2021/01/04 09:01:00;;;;;;;30.30;14.70;;;;;;;3.02;100.00;97717.34;5105139;28;20217;-73
2021/01/04 09:03:30;;;;;;;35.10;16.20;;;;;;;2.92;100.00;97714.03;5097185;28;20211;-74
2021/01/04 09:06:09;;;;;;;36.23;15.23;;;;;;;3.24;100.00;97716.72;5097220;28;20211;-73
2021/01/04 09:08:36;;;;;;;30.00;15.17;;;;;;;3.24;100.00;97719.38;5098201;28;20201;-75
2021/01/04 09:11:06;;;;;;;33.63;14.90;;;;;;;3.12;100.00;97719.84;5095463;28;20225;-73
2021/01/04 09:13:35;;;;;;;31.53;14.50;;;;;;;3.21;100.00;97719.69;5091373;28;20211;-72
2021/01/04 09:16:16;;;;;;;37.53;16.20;;;;;;;2.90;100.00;97713.34;5089444;28;20193;-71
2021/01/04 09:18:45;;;;;;;29.77;14.10;;;;;;;3.38;100.00;97716.09;5102492;28;20296;-72
2021/01/04 09:21:33;;;;;;;34.87;15.93;;;;;;;3.32;100.00;97719.41;5091057;28;20808;-73
2021/01/04 09:24:29;;;;;;;33.17;15.03;;;;;;;3.37;100.00;97709.19;5091756;28;20201;-78
2021/01/04 09:27:00;;;;;;;33.63;14.47;;;;;;;3.69;100.00;97710.97;5090664;28;20222;-73
2021/01/04 09:29:30;;;;;;;30.90;14.73;;;;;;;3.34;100.00;97712.13;5093862;28;20188;-76
2021/01/04 09:31:59;;;;;;;35.57;16.07;;;;;;;3.36;100.00;97712.78;5091720;28;20310;-73
2021/01/04 09:34:30;;;;;;;32.33;15.13;;;;;;;3.50;100.00;97712.13;5093476;28;20741;-76
2021/01/04 09:37:01;;;;;;;27.13;14.27;;;;;;;3.44;100.00;97715.44;5102548;28;20305;-76
2021/01/04 09:39:31;;;;;;;30.37;15.27;;;;;;;3.39;100.00;97717.75;5088371;28;20702;-74
2021/01/04 09:42:00;;;;;;;30.77;14.87;;;;;;;3.38;100.00;97721.38;5092570;28;20251;-73
2021/01/04 09:44:27;;;;;;;30.67;14.50;;;;;;;3.74;100.00;97703.41;5095911;28;20232;-75
2021/01/04 09:46:57;;;;;;;32.83;14.97;;;;;;;3.32;100.00;97703.56;5104660;28;20585;-75
2021/01/04 09:49:27;;;;;;;30.83;14.97;;;;;;;3.36;100.00;97701.44;5098890;28;20265;-75
2021/01/04 09:52:00;;;;;;;33.53;15.83;;;;;;;3.31;100.00;97695.81;5092709;28;20520;-75
2021/01/04 09:54:32;;;;;;;31.00;15.47;;;;;;;3.46;100.00;97697.63;5094539;28;20203;-75
2021/01/04 09:57:01;;;;;;;33.80;16.03;;;;;;;3.78;100.00;97687.09;5100297;28;20199;-75
2021/01/04 09:59:28;;;;;;;35.77;14.70;;;;;;;3.39;100.00;97699.28;5099865;28;20213;-76
2021/01/04 10:01:58;;;;;;;31.53;13.80;;;;;;;3.28;100.00;97688.22;5092920;28;20220;-75
2021/01/04 10:04:31;;;;;;;34.77;14.33;;;;;;;3.54;100.00;97684.44;5091243;28;20230;-75
2021/01/04 10:06:58;;;;;;;32.00;14.23;;;;;;;3.47;100.00;97686.09;5095001;28;20204;-76
2021/01/04 10:09:30;;;;;;;35.37;15.10;;;;;;;3.52;100.00;97688.25;5091655;28;20199;-74
2021/01/04 10:11:59;;;;;;;30.40;14.50;;;;;;;3.90;100.00;97682.25;5103003;28;20229;-75
2021/01/04 10:14:26;;;;;;;34.17;14.67;;;;;;;3.74;100.00;97680.47;5107843;28;20602;-75
2021/01/04 10:16:56;;;;;;;31.13;16.13;;;;;;;3.78;100.00;97676.53;5094453;28;20205;-73
2021/01/04 10:19:26;;;;;;;29.47;13.83;;;;;;;3.92;100.00;97670.53;5096361;28;20205;-75
2021/01/04 10:21:58;;;;;;;29.13;13.77;;;;;;;4.18;100.00;97673.81;5094575;28;20225;-75
2021/01/04 10:24:28;;;;;;;33.57;15.43;;;;;;;3.76;100.00;97670.56;5088267;28;20213;-75
2021/01/04 10:27:00;;;;;;;34.00;15.13;;;;;;;3.52;100.00;97677.69;5096609;28;20208;-74
2021/01/04 10:29:27;;;;;;;29.57;14.07;;;;;;;3.82;100.00;97677.00;5102313;28;20191;-75
2021/01/04 10:32:06;;;;;;;27.97;14.17;;;;;;;3.65;100.00;97681.47;5091661;28;20741;-76
2021/01/04 10:34:42;;;;;;;31.23;14.20;;;;;;;3.58;100.00;97679.66;5091692;28;20196;-76
2021/01/04 10:37:29;;;;;;;31.47;14.47;;;;;;;3.74;100.00;97677.00;5090003;28;20204;-76
2021/01/04 10:39:59;;;;;;;28.93;14.50;;;;;;;3.87;100.00;97678.13;5094273;28;20201;-76
2021/01/04 10:42:26;;;;;;;31.40;13.73;;;;;;;3.58;100.00;97680.50;5093357;28;20621;-72
2021/01/04 10:45:04;;;;;;;29.00;13.17;;;;;;;3.58;100.00;97682.31;5103521;28;20238;-75
2021/01/04 10:47:39;;;;;;;31.30;14.60;;;;;;;3.69;100.00;97682.78;5092265;28;20675;-77
2021/01/04 10:50:07;;;;;;;32.20;14.93;;;;;;;3.69;100.00;97682.78;5094965;28;20282;-73
2021/01/04 10:52:35;;;;;;;28.03;13.07;;;;;;;3.84;100.00;97675.03;5094527;28;20597;-71
2021/01/04 10:55:01;;;;;;;30.77;14.97;;;;;;;3.50;100.00;97679.69;5101236;28;20257;-74
2021/01/04 10:57:36;;;;;;;29.10;13.40;;;;;;;3.73;100.00;97670.94;5095741;28;20219;-74
2021/01/04 11:00:12;;;;;;;28.30;13.63;;;;;;;4.04;100.00;97666.59;5100494;28;20195;-74
2021/01/04 11:02:39;;;;;;;27.60;13.30;;;;;;;3.84;100.00;97667.09;5102190;28;20220;-76
2021/01/04 11:05:08;;;;;;;25.23;13.93;;;;;;;3.75;100.00;97670.72;5095081;28;20210;-71
2021/01/04 11:07:36;;;;;;;27.83;13.37;;;;;;;4.12;100.00;97666.53;5099504;28;20203;-76
2021/01/04 11:10:12;;;;;;;27.73;13.63;;;;;;;3.94;100.00;97655.38;5094751;28;20230;-76
2021/01/04 11:12:47;;;;;;;26.73;13.63;;;;;;;4.06;100.00;97661.13;5096075;28;20685;-78
2021/01/04 11:15:23;;;;;;;29.83;13.47;;;;;;;3.86;100.00;97658.03;5093465;28;20259;-82
2021/01/04 11:17:58;;;;;;;31.13;14.30;;;;;;;4.00;100.00;97657.34;5107030;28;20688;-80
2021/01/04 11:20:25;;;;;;;24.73;12.53;;;;;;;4.04;100.00;97656.03;5091157;28;20235;-76
2021/01/04 11:23:04;;;;;;;31.70;15.33;;;;;;;3.73;100.00;97656.91;5095846;28;20200;-76
2021/01/04 11:25:31;;;;;;;26.17;12.77;;;;;;;3.77;100.00;97650.31;5104042;28;20635;-73
2021/01/04 11:27:58;;;;;;;25.00;11.83;;;;;;;4.36;100.00;97650.63;5106461;28;20722;-74
2021/01/04 11:30:25;;;;;;;28.33;13.33;;;;;;;3.88;100.00;97653.41;5097726;28;20234;-73
2021/01/04 11:32:52;;;;;;;23.73;12.73;;;;;;;4.29;100.00;97641.75;5092117;28;20230;-73
2021/01/04 11:35:19;;;;;;;25.90;13.20;;;;;;;4.18;100.00;97636.84;5093083;28;20198;-70
2021/01/04 11:37:46;;;;;;;21.10;11.80;;;;;;;4.21;100.00;97636.47;5093106;28;20227;-74
2021/01/04 11:40:14;;;;;;;24.40;12.80;;;;;;;4.39;100.00;97639.72;5097752;28;20207;-74
2021/01/04 11:42:43;;;;;;;25.17;11.43;;;;;;;4.15;100.00;97634.53;5098996;28;20190;-73
2021/01/04 11:45:11;;;;;;;23.47;11.87;;;;;;;3.76;100.00;97636.25;5094563;28;20251;-73
2021/01/04 11:47:38;;;;;;;24.53;11.83;;;;;;;4.43;100.00;97630.44;5090063;28;20206;-71
2021/01/04 11:50:07;;;;;;;23.60;11.23;;;;;;;4.17;100.00;97629.09;5098960;28;20215;-73
2021/01/04 11:52:34;;;;;;;23.10;12.60;;;;;;;3.93;100.00;97635.25;5093772;28;20256;-75
2021/01/04 11:55:01;;;;;;;24.03;11.77;;;;;;;4.17;100.00;97624.59;5097048;28;20197;-74
2021/01/04 11:57:29;;;;;;;23.83;11.37;;;;;;;3.96;100.00;97628.81;5093193;28;20206;-79